sensor_id;sensor_type;location;lat;lon;timestamp;temperature;humidity
30648;DHT22;17683;53.360;9.736;2022-12-17T00:01:31;-4.40;99.90
30648;DHT22;17683;53.360;9.736;2022-12-17T00:04:15;-4.40;99.90
30648;DHT22;17683;53.360;9.736;2022-12-17T00:06:59;-4.40;99.90
30648;DHT22;17683;53.360;9.736;2022-12-17T00:09:44;-4.50;99.90
30648;DHT22;17683;53.360;9.736;2022-12-17T00:12:28;-4.50;99.90
30648;DHT22;17683;53.360;9.736;2022-12-17T00:15:12;-4.50;99.90
30648;DHT22;17683;53.360;9.736;2022-12-17T00:18:05;-4.60;99.90
30648;DHT22;17683;53.360;9.736;2022-12-17T00:20:58;-4.70;99.90
30648;DHT22;17683;53.360;9.736;2022-12-17T00:23:43;-4.70;99.90
30648;DHT22;17683;53.360;9.736;2022-12-17T00:26:28;-4.70;99.90
30648;DHT22;17683;53.360;9.736;2022-12-17T00:29:12;-4.80;99.90
30648;DHT22;17683;53.360;9.736;2022-12-17T00:31:57;-4.80;99.90
30648;DHT22;17683;53.360;9.736;2022-12-17T00:34:41;-4.80;99.90
30648;DHT22;17683;53.360;9.736;2022-12-17T00:37:26;-4.90;99.90
30648;DHT22;17683;53.360;9.736;2022-12-17T00:40:10;-4.90;99.90
30648;DHT22;17683;53.360;9.736;2022-12-17T00:43:12;-4.90;99.90
30648;DHT22;17683;53.360;9.736;2022-12-17T00:45:57;-5.00;99.90
30648;DHT22;17683;53.360;9.736;2022-12-17T00:48:41;-4.90;99.90
30648;DHT22;17683;53.360;9.736;2022-12-17T00:51:26;-5.00;99.90
30648;DHT22;17683;53.360;9.736;2022-12-17T00:54:11;-5.00;99.90
30648;DHT22;17683;53.360;9.736;2022-12-17T00:56:55;-5.00;99.90
30648;DHT22;17683;53.360;9.736;2022-12-17T00:59:39;-5.00;99.90
30648;DHT22;17683;53.360;9.736;2022-12-17T01:02:24;-5.00;99.90
30648;DHT22;17683;53.360;9.736;2022-12-17T01:05:08;-5.00;99.90
30648;DHT22;17683;53.360;9.736;2022-12-17T01:07:52;-5.00;99.90
30648;DHT22;17683;53.360;9.736;2022-12-17T01:10:37;-4.90;99.90
30648;DHT22;17683;53.360;9.736;2022-12-17T01:13:21;-4.90;99.90
30648;DHT22;17683;53.360;9.736;2022-12-17T01:16:09;-5.00;99.90
30648;DHT22;17683;53.360;9.736;2022-12-17T01:18:55;-5.00;99.90
30648;DHT22;17683;53.360;9.736;2022-12-17T01:21:40;-5.00;99.90
30648;DHT22;17683;53.360;9.736;2022-12-17T01:24:25;-5.00;99.90
30648;DHT22;17683;53.360;9.736;2022-12-17T01:27:10;-5.10;99.90
30648;DHT22;17683;53.360;9.736;2022-12-17T01:29:54;-5.10;99.90
30648;DHT22;17683;53.360;9.736;2022-12-17T01:32:38;-5.10;99.90
30648;DHT22;17683;53.360;9.736;2022-12-17T01:35:23;-5.10;99.90
30648;DHT22;17683;53.360;9.736;2022-12-17T01:38:15;-5.20;99.90
30648;DHT22;17683;53.360;9.736;2022-12-17T01:41:02;-5.20;99.90
30648;DHT22;17683;53.360;9.736;2022-12-17T01:43:46;-5.30;99.90
30648;DHT22;17683;53.360;9.736;2022-12-17T01:46:36;-5.30;99.90
30648;DHT22;17683;53.360;9.736;2022-12-17T01:49:23;-5.30;99.90
30648;DHT22;17683;53.360;9.736;2022-12-17T01:52:10;-5.40;99.90
30648;DHT22;17683;53.360;9.736;2022-12-17T01:54:56;-5.40;99.90
30648;DHT22;17683;53.360;9.736;2022-12-17T01:57:40;-5.40;99.90
30648;DHT22;17683;53.360;9.736;2022-12-17T02:00:24;-5.40;99.90
30648;DHT22;17683;53.360;9.736;2022-12-17T02:03:17;-5.40;99.90
30648;DHT22;17683;53.360;9.736;2022-12-17T02:06:23;-5.40;99.90
30648;DHT22;17683;53.360;9.736;2022-12-17T02:15:25;-5.50;99.90
30648;DHT22;17683;53.360;9.736;2022-12-17T02:18:24;-5.40;99.90
30648;DHT22;17683;53.360;9.736;2022-12-17T02:21:10;-5.50;99.90
30648;DHT22;17683;53.360;9.736;2022-12-17T02:26:48;-5.60;99.90
30648;DHT22;17683;53.360;9.736;2022-12-17T02:29:40;-5.60;99.90
30648;DHT22;17683;53.360;9.736;2022-12-17T02:32:26;-5.60;99.90
30648;DHT22;17683;53.360;9.736;2022-12-17T02:35:17;-5.50;99.90
30648;DHT22;17683;53.360;9.736;2022-12-17T02:38:14;-5.60;99.90
30648;DHT22;17683;53.360;9.736;2022-12-17T02:40:58;-5.50;99.90
30648;DHT22;17683;53.360;9.736;2022-12-17T02:43:42;-5.50;99.90
30648;DHT22;17683;53.360;9.736;2022-12-17T02:46:27;-5.50;99.90
30648;DHT22;17683;53.360;9.736;2022-12-17T02:49:11;-5.60;99.90
30648;DHT22;17683;53.360;9.736;2022-12-17T02:51:55;-5.60;99.90
30648;DHT22;17683;53.360;9.736;2022-12-17T02:54:39;-5.60;99.90
30648;DHT22;17683;53.360;9.736;2022-12-17T02:57:24;-5.70;99.90
30648;DHT22;17683;53.360;9.736;2022-12-17T03:00:08;-5.70;99.90
30648;DHT22;17683;53.360;9.736;2022-12-17T03:02:52;-5.70;99.90
30648;DHT22;17683;53.360;9.736;2022-12-17T03:05:37;-5.70;99.90
30648;DHT22;17683;53.360;9.736;2022-12-17T03:08:21;-5.70;99.90
30648;DHT22;17683;53.360;9.736;2022-12-17T03:11:05;-5.80;99.90
30648;DHT22;17683;53.360;9.736;2022-12-17T03:13:49;-5.80;99.90
30648;DHT22;17683;53.360;9.736;2022-12-17T03:16:33;-5.70;99.90
30648;DHT22;17683;53.360;9.736;2022-12-17T03:19:21;-5.80;99.90
30648;DHT22;17683;53.360;9.736;2022-12-17T03:22:05;-5.80;99.90
30648;DHT22;17683;53.360;9.736;2022-12-17T03:24:49;-5.80;99.90
30648;DHT22;17683;53.360;9.736;2022-12-17T03:27:33;-5.80;99.90
30648;DHT22;17683;53.360;9.736;2022-12-17T03:30:18;-5.80;99.90
30648;DHT22;17683;53.360;9.736;2022-12-17T03:33:02;-5.80;99.90
30648;DHT22;17683;53.360;9.736;2022-12-17T03:35:46;-5.90;99.90
30648;DHT22;17683;53.360;9.736;2022-12-17T03:38:30;-5.90;99.90
30648;DHT22;17683;53.360;9.736;2022-12-17T03:41:15;-5.90;99.90
30648;DHT22;17683;53.360;9.736;2022-12-17T03:43:59;-5.90;99.90
30648;DHT22;17683;53.360;9.736;2022-12-17T03:46:43;-6.00;99.90
30648;DHT22;17683;53.360;9.736;2022-12-17T03:49:28;-6.00;99.90
30648;DHT22;17683;53.360;9.736;2022-12-17T03:52:12;-6.00;99.90
30648;DHT22;17683;53.360;9.736;2022-12-17T03:54:56;-6.10;99.90
30648;DHT22;17683;53.360;9.736;2022-12-17T03:57:40;-6.00;99.90
30648;DHT22;17683;53.360;9.736;2022-12-17T04:00:24;-6.10;99.90
30648;DHT22;17683;53.360;9.736;2022-12-17T04:03:09;-6.20;99.90
30648;DHT22;17683;53.360;9.736;2022-12-17T04:05:56;-6.20;99.90
30648;DHT22;17683;53.360;9.736;2022-12-17T04:08:40;-6.20;99.90
30648;DHT22;17683;53.360;9.736;2022-12-17T04:11:24;-6.20;99.90
30648;DHT22;17683;53.360;9.736;2022-12-17T04:14:09;-6.30;99.90
30648;DHT22;17683;53.360;9.736;2022-12-17T04:16:53;-6.30;99.90
30648;DHT22;17683;53.360;9.736;2022-12-17T04:19:37;-6.30;99.90
30648;DHT22;17683;53.360;9.736;2022-12-17T04:22:22;-6.40;99.90
30648;DHT22;17683;53.360;9.736;2022-12-17T04:25:06;-6.40;99.90
30648;DHT22;17683;53.360;9.736;2022-12-17T04:27:50;-6.30;99.90
30648;DHT22;17683;53.360;9.736;2022-12-17T04:30:35;-6.40;99.90
30648;DHT22;17683;53.360;9.736;2022-12-17T04:33:19;-6.40;99.90
30648;DHT22;17683;53.360;9.736;2022-12-17T04:36:03;-6.50;99.90
30648;DHT22;17683;53.360;9.736;2022-12-17T04:38:47;-6.40;99.90
30648;DHT22;17683;53.360;9.736;2022-12-17T04:41:31;-6.40;99.90
30648;DHT22;17683;53.360;9.736;2022-12-17T04:44:16;-6.40;99.90
30648;DHT22;17683;53.360;9.736;2022-12-17T04:47:00;-6.50;99.90
30648;DHT22;17683;53.360;9.736;2022-12-17T04:49:44;-6.50;99.90
30648;DHT22;17683;53.360;9.736;2022-12-17T04:52:28;-6.50;99.90
30648;DHT22;17683;53.360;9.736;2022-12-17T04:55:12;-6.50;99.90
30648;DHT22;17683;53.360;9.736;2022-12-17T04:58:03;-6.60;99.90
30648;DHT22;17683;53.360;9.736;2022-12-17T05:00:50;-6.60;99.90
30648;DHT22;17683;53.360;9.736;2022-12-17T05:03:35;-6.60;99.90
30648;DHT22;17683;53.360;9.736;2022-12-17T05:06:19;-6.70;99.90
30648;DHT22;17683;53.360;9.736;2022-12-17T05:09:03;-6.70;99.90
30648;DHT22;17683;53.360;9.736;2022-12-17T05:11:48;-6.70;99.90
30648;DHT22;17683;53.360;9.736;2022-12-17T05:14:32;-6.60;99.90
30648;DHT22;17683;53.360;9.736;2022-12-17T05:17:16;-6.60;99.90
30648;DHT22;17683;53.360;9.736;2022-12-17T05:20:00;-6.70;99.90
30648;DHT22;17683;53.360;9.736;2022-12-17T05:22:45;-6.70;99.90
30648;DHT22;17683;53.360;9.736;2022-12-17T05:25:29;-6.70;99.90
30648;DHT22;17683;53.360;9.736;2022-12-17T05:28:13;-6.70;99.90
30648;DHT22;17683;53.360;9.736;2022-12-17T05:30:58;-6.70;99.90
30648;DHT22;17683;53.360;9.736;2022-12-17T05:33:42;-6.70;99.90
30648;DHT22;17683;53.360;9.736;2022-12-17T05:36:27;-6.70;99.90
30648;DHT22;17683;53.360;9.736;2022-12-17T05:39:11;-6.70;99.90
30648;DHT22;17683;53.360;9.736;2022-12-17T05:41:55;-6.70;99.90
30648;DHT22;17683;53.360;9.736;2022-12-17T05:44:39;-6.70;99.90
30648;DHT22;17683;53.360;9.736;2022-12-17T05:47:24;-6.80;99.90
30648;DHT22;17683;53.360;9.736;2022-12-17T05:50:08;-6.80;99.90
30648;DHT22;17683;53.360;9.736;2022-12-17T05:52:52;-6.80;99.90
30648;DHT22;17683;53.360;9.736;2022-12-17T05:55:36;-6.80;99.90
30648;DHT22;17683;53.360;9.736;2022-12-17T05:58:20;-6.80;99.90
30648;DHT22;17683;53.360;9.736;2022-12-17T06:01:05;-6.80;99.90
30648;DHT22;17683;53.360;9.736;2022-12-17T06:03:49;-6.80;99.90
30648;DHT22;17683;53.360;9.736;2022-12-17T06:06:50;-6.90;99.90
30648;DHT22;17683;53.360;9.736;2022-12-17T06:09:34;-6.80;99.90
30648;DHT22;17683;53.360;9.736;2022-12-17T06:12:18;-6.90;99.90
30648;DHT22;17683;53.360;9.736;2022-12-17T06:15:03;-6.90;99.90
30648;DHT22;17683;53.360;9.736;2022-12-17T06:17:55;-6.90;99.90
30648;DHT22;17683;53.360;9.736;2022-12-17T06:20:39;-6.90;99.90
30648;DHT22;17683;53.360;9.736;2022-12-17T06:23:23;-6.90;99.90
30648;DHT22;17683;53.360;9.736;2022-12-17T06:26:08;-6.90;99.90
30648;DHT22;17683;53.360;9.736;2022-12-17T06:28:52;-6.90;99.90
30648;DHT22;17683;53.360;9.736;2022-12-17T06:31:36;-6.90;99.90
30648;DHT22;17683;53.360;9.736;2022-12-17T06:34:21;-6.90;99.90
30648;DHT22;17683;53.360;9.736;2022-12-17T06:37:05;-6.90;99.90
30648;DHT22;17683;53.360;9.736;2022-12-17T06:39:50;-6.90;99.90
30648;DHT22;17683;53.360;9.736;2022-12-17T06:42:34;-6.90;99.90
30648;DHT22;17683;53.360;9.736;2022-12-17T06:45:18;-6.90;99.90
30648;DHT22;17683;53.360;9.736;2022-12-17T06:48:04;-6.80;99.90
30648;DHT22;17683;53.360;9.736;2022-12-17T06:50:49;-6.80;99.90
30648;DHT22;17683;53.360;9.736;2022-12-17T06:53:33;-6.80;99.90
30648;DHT22;17683;53.360;9.736;2022-12-17T06:56:18;-6.80;99.90
30648;DHT22;17683;53.360;9.736;2022-12-17T06:59:02;-6.80;99.90
30648;DHT22;17683;53.360;9.736;2022-12-17T07:01:46;-6.80;99.90
30648;DHT22;17683;53.360;9.736;2022-12-17T07:04:30;-6.80;99.90
30648;DHT22;17683;53.360;9.736;2022-12-17T07:07:15;-6.80;99.90
30648;DHT22;17683;53.360;9.736;2022-12-17T07:09:59;-6.80;99.90
30648;DHT22;17683;53.360;9.736;2022-12-17T07:12:43;-6.80;99.90
30648;DHT22;17683;53.360;9.736;2022-12-17T07:15:27;-6.80;99.90
30648;DHT22;17683;53.360;9.736;2022-12-17T07:18:12;-6.80;99.90
30648;DHT22;17683;53.360;9.736;2022-12-17T07:20:56;-6.80;99.90
30648;DHT22;17683;53.360;9.736;2022-12-17T07:23:40;-6.80;99.90
30648;DHT22;17683;53.360;9.736;2022-12-17T07:26:25;-6.80;99.90
30648;DHT22;17683;53.360;9.736;2022-12-17T07:29:09;-6.80;99.90
30648;DHT22;17683;53.360;9.736;2022-12-17T07:31:53;-6.80;99.90
30648;DHT22;17683;53.360;9.736;2022-12-17T07:34:37;-6.80;99.90
30648;DHT22;17683;53.360;9.736;2022-12-17T07:37:21;-6.80;99.90
30648;DHT22;17683;53.360;9.736;2022-12-17T07:40:06;-6.80;99.90
30648;DHT22;17683;53.360;9.736;2022-12-17T07:42:50;-6.80;99.90
30648;DHT22;17683;53.360;9.736;2022-12-17T07:45:34;-6.70;99.90
30648;DHT22;17683;53.360;9.736;2022-12-17T07:48:19;-6.70;99.90
30648;DHT22;17683;53.360;9.736;2022-12-17T07:51:03;-6.70;99.90
30648;DHT22;17683;53.360;9.736;2022-12-17T07:53:48;-6.60;99.90
30648;DHT22;17683;53.360;9.736;2022-12-17T07:56:32;-6.60;99.90
30648;DHT22;17683;53.360;9.736;2022-12-17T07:59:16;-6.60;99.90
30648;DHT22;17683;53.360;9.736;2022-12-17T08:02:00;-6.60;99.90
30648;DHT22;17683;53.360;9.736;2022-12-17T08:04:44;-6.60;99.90
30648;DHT22;17683;53.360;9.736;2022-12-17T08:07:29;-6.60;99.90
30648;DHT22;17683;53.360;9.736;2022-12-17T08:10:13;-6.60;99.90
30648;DHT22;17683;53.360;9.736;2022-12-17T08:13:03;-6.50;99.90
30648;DHT22;17683;53.360;9.736;2022-12-17T08:15:48;-6.50;99.90
30648;DHT22;17683;53.360;9.736;2022-12-17T08:18:35;-6.40;99.90
30648;DHT22;17683;53.360;9.736;2022-12-17T08:21:19;-6.40;99.90
30648;DHT22;17683;53.360;9.736;2022-12-17T08:24:03;-6.40;99.90
30648;DHT22;17683;53.360;9.736;2022-12-17T08:26:48;-6.30;99.90
30648;DHT22;17683;53.360;9.736;2022-12-17T08:29:32;-6.30;99.90
30648;DHT22;17683;53.360;9.736;2022-12-17T08:32:17;-6.20;99.90
30648;DHT22;17683;53.360;9.736;2022-12-17T08:35:01;-6.20;99.90
30648;DHT22;17683;53.360;9.736;2022-12-17T08:37:45;-6.10;99.90
30648;DHT22;17683;53.360;9.736;2022-12-17T08:40:29;-6.10;99.90
30648;DHT22;17683;53.360;9.736;2022-12-17T08:43:13;-6.10;99.90
30648;DHT22;17683;53.360;9.736;2022-12-17T08:45:58;-6.00;99.90
30648;DHT22;17683;53.360;9.736;2022-12-17T08:48:42;-6.00;99.90
30648;DHT22;17683;53.360;9.736;2022-12-17T08:51:26;-5.90;99.90
30648;DHT22;17683;53.360;9.736;2022-12-17T08:54:10;-5.90;99.90
30648;DHT22;17683;53.360;9.736;2022-12-17T08:56:55;-5.80;99.90
30648;DHT22;17683;53.360;9.736;2022-12-17T08:59:39;-5.80;99.90
30648;DHT22;17683;53.360;9.736;2022-12-17T09:02:23;-5.80;99.90
30648;DHT22;17683;53.360;9.736;2022-12-17T09:05:08;-5.70;99.90
30648;DHT22;17683;53.360;9.736;2022-12-17T09:08:05;-5.60;99.90
30648;DHT22;17683;53.360;9.736;2022-12-17T09:10:49;-5.50;99.90
30648;DHT22;17683;53.360;9.736;2022-12-17T09:13:34;-5.50;99.90
30648;DHT22;17683;53.360;9.736;2022-12-17T09:16:32;-5.40;99.90
30648;DHT22;17683;53.360;9.736;2022-12-17T09:19:16;-5.40;99.90
30648;DHT22;17683;53.360;9.736;2022-12-17T09:22:01;-5.30;99.90
30648;DHT22;17683;53.360;9.736;2022-12-17T09:24:45;-5.20;99.90
30648;DHT22;17683;53.360;9.736;2022-12-17T09:27:46;-5.20;99.90
30648;DHT22;17683;53.360;9.736;2022-12-17T09:30:30;-5.10;99.90
30648;DHT22;17683;53.360;9.736;2022-12-17T09:33:15;-5.00;99.90
30648;DHT22;17683;53.360;9.736;2022-12-17T09:36:04;-4.90;99.90
30648;DHT22;17683;53.360;9.736;2022-12-17T09:38:48;-4.80;99.90
30648;DHT22;17683;53.360;9.736;2022-12-17T09:50:45;-4.50;99.90
30648;DHT22;17683;53.360;9.736;2022-12-17T09:53:44;-4.50;99.90
30648;DHT22;17683;53.360;9.736;2022-12-17T09:56:31;-4.40;99.90
30648;DHT22;17683;53.360;9.736;2022-12-17T09:59:25;-4.20;99.90
30648;DHT22;17683;53.360;9.736;2022-12-17T10:02:17;-4.20;99.90
30648;DHT22;17683;53.360;9.736;2022-12-17T10:05:06;-4.10;99.90
30648;DHT22;17683;53.360;9.736;2022-12-17T10:07:53;-4.00;99.90
30648;DHT22;17683;53.360;9.736;2022-12-17T10:10:43;-3.90;99.90
30648;DHT22;17683;53.360;9.736;2022-12-17T10:13:28;-3.80;99.90
30648;DHT22;17683;53.360;9.736;2022-12-17T10:16:48;-3.60;99.90
30648;DHT22;17683;53.360;9.736;2022-12-17T10:19:35;-3.50;99.90
30648;DHT22;17683;53.360;9.736;2022-12-17T10:22:21;-3.40;99.90
30648;DHT22;17683;53.360;9.736;2022-12-17T10:25:15;-3.40;99.90
30648;DHT22;17683;53.360;9.736;2022-12-17T10:28:05;-3.30;99.90
30648;DHT22;17683;53.360;9.736;2022-12-17T10:30:50;-3.20;99.90
30648;DHT22;17683;53.360;9.736;2022-12-17T10:33:39;-3.10;99.90
30648;DHT22;17683;53.360;9.736;2022-12-17T10:36:25;-3.10;99.90
30648;DHT22;17683;53.360;9.736;2022-12-17T10:39:21;-3.00;99.90
30648;DHT22;17683;53.360;9.736;2022-12-17T10:45:30;-2.80;99.90
30648;DHT22;17683;53.360;9.736;2022-12-17T10:48:26;-2.70;99.90
30648;DHT22;17683;53.360;9.736;2022-12-17T10:51:32;-2.60;99.90
30648;DHT22;17683;53.360;9.736;2022-12-17T10:57:08;-2.60;99.90
30648;DHT22;17683;53.360;9.736;2022-12-17T11:03:01;-2.40;99.90
30648;DHT22;17683;53.360;9.736;2022-12-17T11:05:49;-2.30;99.90
30648;DHT22;17683;53.360;9.736;2022-12-17T11:08:35;-2.30;99.90
30648;DHT22;17683;53.360;9.736;2022-12-17T11:11:20;-2.30;99.90
30648;DHT22;17683;53.360;9.736;2022-12-17T11:14:08;-2.20;99.90
30648;DHT22;17683;53.360;9.736;2022-12-17T11:16:57;-2.20;99.90
30648;DHT22;17683;53.360;9.736;2022-12-17T11:19:56;-2.10;99.90
30648;DHT22;17683;53.360;9.736;2022-12-17T11:22:53;-2.00;99.90
30648;DHT22;17683;53.360;9.736;2022-12-17T11:25:55;-2.00;99.90
30648;DHT22;17683;53.360;9.736;2022-12-17T11:28:40;-1.90;99.90
30648;DHT22;17683;53.360;9.736;2022-12-17T11:40:09;-1.60;99.90
30648;DHT22;17683;53.360;9.736;2022-12-17T11:48:55;-1.40;99.90
30648;DHT22;17683;53.360;9.736;2022-12-17T11:52:12;-1.40;99.90
30648;DHT22;17683;53.360;9.736;2022-12-17T11:58:26;-1.30;99.90
30648;DHT22;17683;53.360;9.736;2022-12-17T12:04:35;-1.10;99.90
30648;DHT22;17683;53.360;9.736;2022-12-17T12:07:44;-1.10;99.90
30648;DHT22;17683;53.360;9.736;2022-12-17T12:10:39;-1.10;99.90
30648;DHT22;17683;53.360;9.736;2022-12-17T12:13:43;-1.00;99.90
30648;DHT22;17683;53.360;9.736;2022-12-17T12:16:42;-1.00;99.90
30648;DHT22;17683;53.360;9.736;2022-12-17T12:22:42;-1.00;99.90
30648;DHT22;17683;53.360;9.736;2022-12-17T12:26:03;-1.00;99.90
30648;DHT22;17683;53.360;9.736;2022-12-17T12:28:59;-1.00;99.90
30648;DHT22;17683;53.360;9.736;2022-12-17T12:35:00;-1.00;99.90
30648;DHT22;17683;53.360;9.736;2022-12-17T12:37:46;-1.00;99.90
30648;DHT22;17683;53.360;9.736;2022-12-17T12:41:13;-1.00;99.90
30648;DHT22;17683;53.360;9.736;2022-12-17T12:43:41;-1.00;99.90
30648;DHT22;17683;53.360;9.736;2022-12-17T12:49:24;-1.00;99.90
30648;DHT22;17683;53.360;9.736;2022-12-17T12:52:22;-1.00;99.90
30648;DHT22;17683;53.360;9.736;2022-12-17T12:55:10;-1.00;99.90
30648;DHT22;17683;53.360;9.736;2022-12-17T12:57:59;-0.90;99.90
30648;DHT22;17683;53.360;9.736;2022-12-17T13:03:48;-1.00;99.90
30648;DHT22;17683;53.360;9.736;2022-12-17T13:11:41;-1.00;99.90
30648;DHT22;17683;53.360;9.736;2022-12-17T13:14:14;-1.00;99.90
30648;DHT22;17683;53.360;9.736;2022-12-17T13:24:48;-1.00;99.90
30648;DHT22;17683;53.360;9.736;2022-12-17T13:41:10;-1.10;99.90
30648;DHT22;17683;53.360;9.736;2022-12-17T13:48:59;-1.10;99.90
30648;DHT22;17683;53.360;9.736;2022-12-17T13:51:32;-1.20;99.90
30648;DHT22;17683;53.360;9.736;2022-12-17T13:54:00;-1.20;99.90
30648;DHT22;17683;53.360;9.736;2022-12-17T13:56:35;-1.20;99.90
30648;DHT22;17683;53.360;9.736;2022-12-17T13:59:01;-1.20;99.90
30648;DHT22;17683;53.360;9.736;2022-12-17T14:01:28;-1.30;99.90
30648;DHT22;17683;53.360;9.736;2022-12-17T14:03:56;-1.30;99.90
30648;DHT22;17683;53.360;9.736;2022-12-17T14:06:24;-1.30;99.90
30648;DHT22;17683;53.360;9.736;2022-12-17T14:08:52;-1.30;99.90
30648;DHT22;17683;53.360;9.736;2022-12-17T14:11:19;-1.30;99.90
30648;DHT22;17683;53.360;9.736;2022-12-17T14:14:07;-1.30;99.90
30648;DHT22;17683;53.360;9.736;2022-12-17T14:16:34;-1.30;99.90
30648;DHT22;17683;53.360;9.736;2022-12-17T14:18:59;-1.40;99.90
30648;DHT22;17683;53.360;9.736;2022-12-17T14:21:27;-1.40;99.90
30648;DHT22;17683;53.360;9.736;2022-12-17T14:23:53;-1.40;99.90
30648;DHT22;17683;53.360;9.736;2022-12-17T14:26:19;-1.40;99.90
30648;DHT22;17683;53.360;9.736;2022-12-17T14:28:51;-1.50;99.90
30648;DHT22;17683;53.360;9.736;2022-12-17T14:33:59;-1.60;99.90
30648;DHT22;17683;53.360;9.736;2022-12-17T14:36:37;-1.60;99.90
30648;DHT22;17683;53.360;9.736;2022-12-17T14:41:40;-1.70;99.90
30648;DHT22;17683;53.360;9.736;2022-12-17T14:44:26;-1.80;99.90
30648;DHT22;17683;53.360;9.736;2022-12-17T14:47:22;-1.90;99.90
30648;DHT22;17683;53.360;9.736;2022-12-17T14:50:01;-1.90;99.90
30648;DHT22;17683;53.360;9.736;2022-12-17T14:52:33;-2.00;99.90
30648;DHT22;17683;53.360;9.736;2022-12-17T14:54:59;-2.10;99.90
30648;DHT22;17683;53.360;9.736;2022-12-17T14:57:25;-2.10;99.90
30648;DHT22;17683;53.360;9.736;2022-12-17T14:59:51;-2.10;99.90
30648;DHT22;17683;53.360;9.736;2022-12-17T15:02:24;-2.10;99.90
30648;DHT22;17683;53.360;9.736;2022-12-17T15:04:52;-2.20;99.90
30648;DHT22;17683;53.360;9.736;2022-12-17T15:07:26;-2.30;99.90
30648;DHT22;17683;53.360;9.736;2022-12-17T15:09:53;-2.20;99.90
30648;DHT22;17683;53.360;9.736;2022-12-17T15:12:20;-2.30;99.90
30648;DHT22;17683;53.360;9.736;2022-12-17T15:14:47;-2.30;99.90
30648;DHT22;17683;53.360;9.736;2022-12-17T15:17:13;-2.30;99.90
30648;DHT22;17683;53.360;9.736;2022-12-17T15:19:40;-2.40;99.90
30648;DHT22;17683;53.360;9.736;2022-12-17T15:22:11;-2.50;99.90
30648;DHT22;17683;53.360;9.736;2022-12-17T15:24:38;-2.50;99.90
30648;DHT22;17683;53.360;9.736;2022-12-17T15:27:04;-2.50;99.90
30648;DHT22;17683;53.360;9.736;2022-12-17T15:29:29;-2.50;99.90
30648;DHT22;17683;53.360;9.736;2022-12-17T15:31:56;-2.50;99.90
30648;DHT22;17683;53.360;9.736;2022-12-17T15:34:22;-2.60;99.90
30648;DHT22;17683;53.360;9.736;2022-12-17T15:36:47;-2.60;99.90
30648;DHT22;17683;53.360;9.736;2022-12-17T15:39:13;-2.70;99.90
30648;DHT22;17683;53.360;9.736;2022-12-17T15:41:39;-2.70;99.90
30648;DHT22;17683;53.360;9.736;2022-12-17T15:44:23;-2.80;99.90
30648;DHT22;17683;53.360;9.736;2022-12-17T15:46:49;-2.90;99.90
30648;DHT22;17683;53.360;9.736;2022-12-17T15:49:15;-2.90;99.90
30648;DHT22;17683;53.360;9.736;2022-12-17T15:51:40;-2.90;99.90
30648;DHT22;17683;53.360;9.736;2022-12-17T15:54:06;-3.00;99.90
30648;DHT22;17683;53.360;9.736;2022-12-17T15:56:31;-3.00;99.90
30648;DHT22;17683;53.360;9.736;2022-12-17T15:58:59;-3.10;99.90
30648;DHT22;17683;53.360;9.736;2022-12-17T16:01:25;-3.20;99.90
30648;DHT22;17683;53.360;9.736;2022-12-17T16:03:50;-3.20;99.90
30648;DHT22;17683;53.360;9.736;2022-12-17T16:06:16;-3.30;99.90
30648;DHT22;17683;53.360;9.736;2022-12-17T16:08:42;-3.30;99.90
30648;DHT22;17683;53.360;9.736;2022-12-17T16:11:09;-3.30;99.90
30648;DHT22;17683;53.360;9.736;2022-12-17T16:13:36;-3.30;99.90
30648;DHT22;17683;53.360;9.736;2022-12-17T16:16:02;-3.40;99.90
30648;DHT22;17683;53.360;9.736;2022-12-17T16:18:27;-3.40;99.90
30648;DHT22;17683;53.360;9.736;2022-12-17T16:20:53;-3.40;99.90
30648;DHT22;17683;53.360;9.736;2022-12-17T16:23:20;-3.40;99.90
30648;DHT22;17683;53.360;9.736;2022-12-17T16:25:58;-3.40;99.90
30648;DHT22;17683;53.360;9.736;2022-12-17T16:28:25;-3.40;99.90
30648;DHT22;17683;53.360;9.736;2022-12-17T16:31:05;-3.40;99.90
30648;DHT22;17683;53.360;9.736;2022-12-17T16:33:33;-3.50;99.90
30648;DHT22;17683;53.360;9.736;2022-12-17T16:35:59;-3.50;99.90
30648;DHT22;17683;53.360;9.736;2022-12-17T16:38:25;-3.60;99.90
30648;DHT22;17683;53.360;9.736;2022-12-17T16:40:58;-3.60;99.90
30648;DHT22;17683;53.360;9.736;2022-12-17T16:43:25;-3.70;99.90
30648;DHT22;17683;53.360;9.736;2022-12-17T16:45:52;-3.70;99.90
30648;DHT22;17683;53.360;9.736;2022-12-17T16:48:19;-3.70;99.90
30648;DHT22;17683;53.360;9.736;2022-12-17T16:50:46;-3.80;99.90
30648;DHT22;17683;53.360;9.736;2022-12-17T16:53:12;-3.90;99.90
30648;DHT22;17683;53.360;9.736;2022-12-17T16:55:40;-3.90;99.90
30648;DHT22;17683;53.360;9.736;2022-12-17T16:58:06;-4.00;99.90
30648;DHT22;17683;53.360;9.736;2022-12-17T17:00:33;-4.10;99.90
30648;DHT22;17683;53.360;9.736;2022-12-17T17:02:58;-4.10;99.90
30648;DHT22;17683;53.360;9.736;2022-12-17T17:05:24;-4.20;99.90
30648;DHT22;17683;53.360;9.736;2022-12-17T17:07:50;-4.30;99.90
30648;DHT22;17683;53.360;9.736;2022-12-17T17:10:16;-4.30;99.90
30648;DHT22;17683;53.360;9.736;2022-12-17T17:12:42;-4.30;99.90
30648;DHT22;17683;53.360;9.736;2022-12-17T17:15:09;-4.30;99.90
30648;DHT22;17683;53.360;9.736;2022-12-17T17:17:35;-4.30;99.90
30648;DHT22;17683;53.360;9.736;2022-12-17T17:20:01;-4.40;99.90
30648;DHT22;17683;53.360;9.736;2022-12-17T17:22:26;-4.40;99.90
30648;DHT22;17683;53.360;9.736;2022-12-17T17:24:52;-4.40;99.90
30648;DHT22;17683;53.360;9.736;2022-12-17T17:27:18;-4.40;99.90
30648;DHT22;17683;53.360;9.736;2022-12-17T17:29:44;-4.50;99.90
30648;DHT22;17683;53.360;9.736;2022-12-17T17:32:09;-4.50;99.90
30648;DHT22;17683;53.360;9.736;2022-12-17T17:34:35;-4.60;99.90
30648;DHT22;17683;53.360;9.736;2022-12-17T17:37:01;-4.60;99.90
30648;DHT22;17683;53.360;9.736;2022-12-17T17:39:26;-4.70;99.90
30648;DHT22;17683;53.360;9.736;2022-12-17T17:41:52;-4.60;99.90
30648;DHT22;17683;53.360;9.736;2022-12-17T17:44:17;-4.70;99.90
30648;DHT22;17683;53.360;9.736;2022-12-17T17:46:43;-4.60;99.90
30648;DHT22;17683;53.360;9.736;2022-12-17T17:49:09;-4.70;99.90
30648;DHT22;17683;53.360;9.736;2022-12-17T17:51:38;-4.70;99.90
30648;DHT22;17683;53.360;9.736;2022-12-17T17:54:06;-4.80;99.90
30648;DHT22;17683;53.360;9.736;2022-12-17T17:56:34;-4.70;99.90
30648;DHT22;17683;53.360;9.736;2022-12-17T17:59:02;-4.70;99.90
30648;DHT22;17683;53.360;9.736;2022-12-17T18:01:31;-4.80;99.90
30648;DHT22;17683;53.360;9.736;2022-12-17T18:03:59;-4.80;99.90
30648;DHT22;17683;53.360;9.736;2022-12-17T18:06:28;-4.80;99.90
30648;DHT22;17683;53.360;9.736;2022-12-17T18:08:55;-4.80;99.90
30648;DHT22;17683;53.360;9.736;2022-12-17T18:11:21;-4.90;99.90
30648;DHT22;17683;53.360;9.736;2022-12-17T18:13:48;-5.00;99.90
30648;DHT22;17683;53.360;9.736;2022-12-17T18:16:29;-4.90;99.90
30648;DHT22;17683;53.360;9.736;2022-12-17T18:18:58;-4.90;99.90
30648;DHT22;17683;53.360;9.736;2022-12-17T18:21:26;-5.00;99.90
30648;DHT22;17683;53.360;9.736;2022-12-17T18:24:04;-5.00;99.90
30648;DHT22;17683;53.360;9.736;2022-12-17T18:26:31;-5.00;99.90
30648;DHT22;17683;53.360;9.736;2022-12-17T18:28:58;-5.10;99.90
30648;DHT22;17683;53.360;9.736;2022-12-17T18:31:28;-5.00;99.90
30648;DHT22;17683;53.360;9.736;2022-12-17T18:34:00;-5.00;99.90
30648;DHT22;17683;53.360;9.736;2022-12-17T18:36:32;-5.10;99.90